sensor_id;sensor_type;location;lat;lon;timestamp;temperature;humidity
38090;DHT22;23904;52.322;10.232;2024-01-07T00:00:16;0.50;99.90
38090;DHT22;23904;52.322;10.232;2024-01-07T00:02:42;0.60;99.90
38090;DHT22;23904;52.322;10.232;2024-01-07T00:05:08;0.60;99.90
38090;DHT22;23904;52.322;10.232;2024-01-07T00:07:34;0.60;99.90
38090;DHT22;23904;52.322;10.232;2024-01-07T00:09:59;0.60;99.90
38090;DHT22;23904;52.322;10.232;2024-01-07T00:12:25;0.60;99.90
38090;DHT22;23904;52.322;10.232;2024-01-07T00:14:51;0.60;99.90
38090;DHT22;23904;52.322;10.232;2024-01-07T00:17:16;0.50;99.90
38090;DHT22;23904;52.322;10.232;2024-01-07T00:19:42;0.40;99.90
38090;DHT22;23904;52.322;10.232;2024-01-07T00:22:07;0.40;99.90
38090;DHT22;23904;52.322;10.232;2024-01-07T00:24:33;0.40;99.90
38090;DHT22;23904;52.322;10.232;2024-01-07T00:26:58;0.40;99.90
38090;DHT22;23904;52.322;10.232;2024-01-07T00:29:24;0.40;99.90
38090;DHT22;23904;52.322;10.232;2024-01-07T00:31:49;0.40;99.90
38090;DHT22;23904;52.322;10.232;2024-01-07T00:34:15;0.50;99.90
38090;DHT22;23904;52.322;10.232;2024-01-07T00:36:40;0.50;99.90
38090;DHT22;23904;52.322;10.232;2024-01-07T00:39:06;0.50;99.90
38090;DHT22;23904;52.322;10.232;2024-01-07T00:41:32;0.40;99.90
38090;DHT22;23904;52.322;10.232;2024-01-07T00:43:58;0.30;99.90
38090;DHT22;23904;52.322;10.232;2024-01-07T00:46:23;0.30;99.90
38090;DHT22;23904;52.322;10.232;2024-01-07T00:48:49;0.30;99.90
38090;DHT22;23904;52.322;10.232;2024-01-07T00:51:15;0.30;99.90
38090;DHT22;23904;52.322;10.232;2024-01-07T00:53:40;0.20;99.90
38090;DHT22;23904;52.322;10.232;2024-01-07T00:56:06;0.20;99.90
38090;DHT22;23904;52.322;10.232;2024-01-07T00:58:32;0.20;99.90
38090;DHT22;23904;52.322;10.232;2024-01-07T01:00:57;0.30;99.90
38090;DHT22;23904;52.322;10.232;2024-01-07T01:03:25;0.20;99.90
38090;DHT22;23904;52.322;10.232;2024-01-07T01:05:51;0.20;99.90
38090;DHT22;23904;52.322;10.232;2024-01-07T01:08:17;0.20;99.90
38090;DHT22;23904;52.322;10.232;2024-01-07T01:10:43;0.20;99.90
38090;DHT22;23904;52.322;10.232;2024-01-07T01:13:09;0.10;99.90
38090;DHT22;23904;52.322;10.232;2024-01-07T01:15:34;0.20;99.90
38090;DHT22;23904;52.322;10.232;2024-01-07T01:18:00;0.20;99.90
38090;DHT22;23904;52.322;10.232;2024-01-07T01:20:26;0.10;99.90
38090;DHT22;23904;52.322;10.232;2024-01-07T01:22:51;0.10;99.90
38090;DHT22;23904;52.322;10.232;2024-01-07T01:25:17;0.10;99.90
38090;DHT22;23904;52.322;10.232;2024-01-07T01:27:42;0.10;99.90
38090;DHT22;23904;52.322;10.232;2024-01-07T01:30:08;0.10;99.90
38090;DHT22;23904;52.322;10.232;2024-01-07T01:32:34;0.10;99.90
38090;DHT22;23904;52.322;10.232;2024-01-07T01:34:59;0.10;99.90
38090;DHT22;23904;52.322;10.232;2024-01-07T01:37:25;0.10;99.90
38090;DHT22;23904;52.322;10.232;2024-01-07T01:39:50;0.10;99.90
38090;DHT22;23904;52.322;10.232;2024-01-07T01:42:16;0.10;99.90
38090;DHT22;23904;52.322;10.232;2024-01-07T01:44:42;0.10;99.90
38090;DHT22;23904;52.322;10.232;2024-01-07T01:47:08;0.10;99.90
38090;DHT22;23904;52.322;10.232;2024-01-07T01:49:33;0.00;99.90
38090;DHT22;23904;52.322;10.232;2024-01-07T01:52:01;0.00;99.90
38090;DHT22;23904;52.322;10.232;2024-01-07T01:54:26;0.00;99.90
38090;DHT22;23904;52.322;10.232;2024-01-07T01:56:52;0.00;99.90
38090;DHT22;23904;52.322;10.232;2024-01-07T01:59:18;0.00;99.90
38090;DHT22;23904;52.322;10.232;2024-01-07T02:01:45;0.00;99.90
38090;DHT22;23904;52.322;10.232;2024-01-07T02:04:10;0.00;99.90
38090;DHT22;23904;52.322;10.232;2024-01-07T02:06:36;0.00;99.90
38090;DHT22;23904;52.322;10.232;2024-01-07T02:09:02;0.00;99.90
38090;DHT22;23904;52.322;10.232;2024-01-07T02:11:28;0.00;99.90
38090;DHT22;23904;52.322;10.232;2024-01-07T02:13:54;0.00;99.90
38090;DHT22;23904;52.322;10.232;2024-01-07T02:16:19;0.00;99.90
38090;DHT22;23904;52.322;10.232;2024-01-07T02:18:45;0.00;99.90
38090;DHT22;23904;52.322;10.232;2024-01-07T02:21:13;0.00;99.90
38090;DHT22;23904;52.322;10.232;2024-01-07T02:23:39;-0.10;99.90
38090;DHT22;23904;52.322;10.232;2024-01-07T02:26:04;-0.10;99.90
38090;DHT22;23904;52.322;10.232;2024-01-07T02:28:31;-0.10;99.90
38090;DHT22;23904;52.322;10.232;2024-01-07T02:30:57;-0.20;99.90
38090;DHT22;23904;52.322;10.232;2024-01-07T02:33:22;-0.10;99.90
38090;DHT22;23904;52.322;10.232;2024-01-07T02:35:48;-0.10;99.90
38090;DHT22;23904;52.322;10.232;2024-01-07T02:38:13;-0.10;99.90
38090;DHT22;23904;52.322;10.232;2024-01-07T02:40:39;-0.20;99.90
38090;DHT22;23904;52.322;10.232;2024-01-07T02:43:04;-0.20;99.90
38090;DHT22;23904;52.322;10.232;2024-01-07T02:45:30;-0.20;99.90
38090;DHT22;23904;52.322;10.232;2024-01-07T02:47:55;-0.20;99.90
38090;DHT22;23904;52.322;10.232;2024-01-07T02:50:21;-0.20;99.90
38090;DHT22;23904;52.322;10.232;2024-01-07T02:52:47;-0.20;99.90
38090;DHT22;23904;52.322;10.232;2024-01-07T02:55:13;-0.30;99.90
38090;DHT22;23904;52.322;10.232;2024-01-07T02:57:39;-0.30;99.90
38090;DHT22;23904;52.322;10.232;2024-01-07T03:00:05;-0.20;99.90
38090;DHT22;23904;52.322;10.232;2024-01-07T03:02:31;-0.30;99.90
38090;DHT22;23904;52.322;10.232;2024-01-07T03:04:56;-0.20;99.90
38090;DHT22;23904;52.322;10.232;2024-01-07T03:07:22;-0.20;99.90
38090;DHT22;23904;52.322;10.232;2024-01-07T03:09:50;-0.30;99.90
38090;DHT22;23904;52.322;10.232;2024-01-07T03:12:16;-0.30;99.90
38090;DHT22;23904;52.322;10.232;2024-01-07T03:14:42;-0.20;99.90
38090;DHT22;23904;52.322;10.232;2024-01-07T03:17:09;-0.20;99.90
38090;DHT22;23904;52.322;10.232;2024-01-07T03:19:38;-0.20;99.90
38090;DHT22;23904;52.322;10.232;2024-01-07T03:22:04;-0.20;99.90
38090;DHT22;23904;52.322;10.232;2024-01-07T03:24:31;-0.20;99.90
38090;DHT22;23904;52.322;10.232;2024-01-07T03:26:56;-0.20;99.90
38090;DHT22;23904;52.322;10.232;2024-01-07T03:29:22;-0.30;99.90
38090;DHT22;23904;52.322;10.232;2024-01-07T03:31:47;-0.30;99.90
38090;DHT22;23904;52.322;10.232;2024-01-07T03:34:13;-0.30;99.90
38090;DHT22;23904;52.322;10.232;2024-01-07T03:36:38;-0.30;99.90
38090;DHT22;23904;52.322;10.232;2024-01-07T03:39:04;-0.30;99.90
38090;DHT22;23904;52.322;10.232;2024-01-07T03:41:29;-0.30;99.90
38090;DHT22;23904;52.322;10.232;2024-01-07T03:43:55;-0.40;99.90
38090;DHT22;23904;52.322;10.232;2024-01-07T03:46:21;-0.40;99.90
38090;DHT22;23904;52.322;10.232;2024-01-07T03:48:47;-0.50;99.90
38090;DHT22;23904;52.322;10.232;2024-01-07T03:51:13;-0.40;99.90
38090;DHT22;23904;52.322;10.232;2024-01-07T03:53:38;-0.40;99.90
38090;DHT22;23904;52.322;10.232;2024-01-07T03:56:04;-0.30;99.90
38090;DHT22;23904;52.322;10.232;2024-01-07T03:58:30;-0.30;99.90
38090;DHT22;23904;52.322;10.232;2024-01-07T04:00:55;-0.30;99.90
38090;DHT22;23904;52.322;10.232;2024-01-07T04:03:21;-0.30;99.90
38090;DHT22;23904;52.322;10.232;2024-01-07T04:05:46;-0.30;99.90
38090;DHT22;23904;52.322;10.232;2024-01-07T04:08:12;-0.30;99.90
38090;DHT22;23904;52.322;10.232;2024-01-07T04:10:38;-0.30;99.90
38090;DHT22;23904;52.322;10.232;2024-01-07T04:13:04;-0.30;99.90
38090;DHT22;23904;52.322;10.232;2024-01-07T04:15:30;-0.30;99.90
38090;DHT22;23904;52.322;10.232;2024-01-07T04:17:55;-0.30;99.90
38090;DHT22;23904;52.322;10.232;2024-01-07T04:20:21;-0.30;99.90
38090;DHT22;23904;52.322;10.232;2024-01-07T04:22:47;-0.30;99.90
38090;DHT22;23904;52.322;10.232;2024-01-07T04:25:13;-0.30;99.90
38090;DHT22;23904;52.322;10.232;2024-01-07T04:27:38;-0.20;99.90
38090;DHT22;23904;52.322;10.232;2024-01-07T04:30:05;-0.20;99.90
38090;DHT22;23904;52.322;10.232;2024-01-07T04:32:32;-0.20;99.90
38090;DHT22;23904;52.322;10.232;2024-01-07T04:34:57;-0.20;99.90
38090;DHT22;23904;52.322;10.232;2024-01-07T04:37:23;-0.20;99.90
38090;DHT22;23904;52.322;10.232;2024-01-07T04:39:50;-0.20;99.90
38090;DHT22;23904;52.322;10.232;2024-01-07T04:42:17;-0.30;99.90
38090;DHT22;23904;52.322;10.232;2024-01-07T04:44:42;-0.20;99.90
38090;DHT22;23904;52.322;10.232;2024-01-07T04:47:29;-0.30;99.90
38090;DHT22;23904;52.322;10.232;2024-01-07T04:49:56;-0.30;99.90
38090;DHT22;23904;52.322;10.232;2024-01-07T04:52:25;-0.40;99.90
38090;DHT22;23904;52.322;10.232;2024-01-07T04:54:52;-0.40;99.90
38090;DHT22;23904;52.322;10.232;2024-01-07T04:57:18;-0.50;99.90
38090;DHT22;23904;52.322;10.232;2024-01-07T04:59:44;-0.50;99.90
38090;DHT22;23904;52.322;10.232;2024-01-07T05:02:10;-0.40;99.90
38090;DHT22;23904;52.322;10.232;2024-01-07T05:04:36;-0.30;99.90
38090;DHT22;23904;52.322;10.232;2024-01-07T05:07:01;-0.30;99.90
38090;DHT22;23904;52.322;10.232;2024-01-07T05:09:27;-0.30;99.90
38090;DHT22;23904;52.322;10.232;2024-01-07T05:11:53;-0.30;99.90
38090;DHT22;23904;52.322;10.232;2024-01-07T05:14:18;-0.40;99.90
38090;DHT22;23904;52.322;10.232;2024-01-07T05:16:44;-0.40;99.90
38090;DHT22;23904;52.322;10.232;2024-01-07T05:19:09;-0.50;99.90
38090;DHT22;23904;52.322;10.232;2024-01-07T05:21:35;-0.50;99.90
38090;DHT22;23904;52.322;10.232;2024-01-07T05:24:00;-0.60;99.90
38090;DHT22;23904;52.322;10.232;2024-01-07T05:26:26;-0.60;99.90
38090;DHT22;23904;52.322;10.232;2024-01-07T05:28:51;-0.70;99.90
38090;DHT22;23904;52.322;10.232;2024-01-07T05:31:17;-0.70;99.90
38090;DHT22;23904;52.322;10.232;2024-01-07T05:33:44;-0.70;99.90
38090;DHT22;23904;52.322;10.232;2024-01-07T05:36:13;-0.70;99.90
38090;DHT22;23904;52.322;10.232;2024-01-07T05:38:38;-0.80;99.90
38090;DHT22;23904;52.322;10.232;2024-01-07T05:41:05;-0.70;99.90
38090;DHT22;23904;52.322;10.232;2024-01-07T05:43:30;-0.80;99.90
38090;DHT22;23904;52.322;10.232;2024-01-07T05:45:56;-0.90;99.90
38090;DHT22;23904;52.322;10.232;2024-01-07T05:48:22;-0.90;99.90
38090;DHT22;23904;52.322;10.232;2024-01-07T05:50:48;-0.90;99.90
38090;DHT22;23904;52.322;10.232;2024-01-07T05:53:14;-1.00;99.90
38090;DHT22;23904;52.322;10.232;2024-01-07T05:55:40;-1.00;99.90
38090;DHT22;23904;52.322;10.232;2024-01-07T05:58:06;-1.00;99.90
38090;DHT22;23904;52.322;10.232;2024-01-07T06:00:31;-1.00;99.90
38090;DHT22;23904;52.322;10.232;2024-01-07T06:02:57;-1.00;99.90
38090;DHT22;23904;52.322;10.232;2024-01-07T06:05:23;-1.00;99.90
38090;DHT22;23904;52.322;10.232;2024-01-07T06:07:48;-1.00;99.90
38090;DHT22;23904;52.322;10.232;2024-01-07T06:10:14;-1.00;99.90
38090;DHT22;23904;52.322;10.232;2024-01-07T06:12:40;-1.10;99.90
38090;DHT22;23904;52.322;10.232;2024-01-07T06:15:06;-1.00;99.90
38090;DHT22;23904;52.322;10.232;2024-01-07T06:17:32;-1.00;99.90
38090;DHT22;23904;52.322;10.232;2024-01-07T06:19:57;-1.00;99.90
38090;DHT22;23904;52.322;10.232;2024-01-07T06:22:23;-1.10;99.90
38090;DHT22;23904;52.322;10.232;2024-01-07T06:24:48;-1.00;99.90
38090;DHT22;23904;52.322;10.232;2024-01-07T06:27:14;-1.00;99.90
38090;DHT22;23904;52.322;10.232;2024-01-07T06:29:39;-1.00;99.90
38090;DHT22;23904;52.322;10.232;2024-01-07T06:32:05;-1.10;99.90
38090;DHT22;23904;52.322;10.232;2024-01-07T06:34:31;-1.00;99.90
38090;DHT22;23904;52.322;10.232;2024-01-07T06:36:58;-1.10;99.90
38090;DHT22;23904;52.322;10.232;2024-01-07T06:39:23;-1.10;99.90
38090;DHT22;23904;52.322;10.232;2024-01-07T06:41:52;-1.10;99.90
38090;DHT22;23904;52.322;10.232;2024-01-07T06:44:18;-1.10;99.90
38090;DHT22;23904;52.322;10.232;2024-01-07T06:46:43;-1.10;99.90
38090;DHT22;23904;52.322;10.232;2024-01-07T06:49:09;-1.10;99.90
38090;DHT22;23904;52.322;10.232;2024-01-07T06:51:34;-1.20;99.90
38090;DHT22;23904;52.322;10.232;2024-01-07T06:54:00;-1.10;99.90
38090;DHT22;23904;52.322;10.232;2024-01-07T06:56:25;-1.10;99.90
38090;DHT22;23904;52.322;10.232;2024-01-07T06:58:51;-1.10;99.90
38090;DHT22;23904;52.322;10.232;2024-01-07T07:01:19;-1.10;99.90
38090;DHT22;23904;52.322;10.232;2024-01-07T07:03:46;-1.10;99.90
38090;DHT22;23904;52.322;10.232;2024-01-07T07:06:12;-1.10;99.90
38090;DHT22;23904;52.322;10.232;2024-01-07T07:08:38;-1.10;99.90
38090;DHT22;23904;52.322;10.232;2024-01-07T07:11:03;-1.10;99.90
38090;DHT22;23904;52.322;10.232;2024-01-07T07:13:29;-1.10;99.90
38090;DHT22;23904;52.322;10.232;2024-01-07T07:15:54;-1.10;99.90
38090;DHT22;23904;52.322;10.232;2024-01-07T07:18:20;-1.00;99.90
38090;DHT22;23904;52.322;10.232;2024-01-07T07:20:45;-1.00;99.90
38090;DHT22;23904;52.322;10.232;2024-01-07T07:23:11;-1.00;99.90
38090;DHT22;23904;52.322;10.232;2024-01-07T07:25:37;-1.00;99.90
38090;DHT22;23904;52.322;10.232;2024-01-07T07:28:02;-1.00;99.90
38090;DHT22;23904;52.322;10.232;2024-01-07T07:30:28;-1.00;99.90
38090;DHT22;23904;52.322;10.232;2024-01-07T07:32:55;-0.90;99.90
38090;DHT22;23904;52.322;10.232;2024-01-07T07:35:20;-0.90;99.90
38090;DHT22;23904;52.322;10.232;2024-01-07T07:37:46;-0.90;99.90
38090;DHT22;23904;52.322;10.232;2024-01-07T07:40:12;-0.90;99.90
38090;DHT22;23904;52.322;10.232;2024-01-07T07:42:38;-0.90;99.90
38090;DHT22;23904;52.322;10.232;2024-01-07T07:45:04;-0.90;99.90
38090;DHT22;23904;52.322;10.232;2024-01-07T07:47:31;-0.80;99.90
38090;DHT22;23904;52.322;10.232;2024-01-07T07:49:56;-0.80;99.90
38090;DHT22;23904;52.322;10.232;2024-01-07T07:52:22;-0.80;99.90
38090;DHT22;23904;52.322;10.232;2024-01-07T07:54:53;-0.90;99.90
38090;DHT22;23904;52.322;10.232;2024-01-07T07:57:19;-0.80;99.90
38090;DHT22;23904;52.322;10.232;2024-01-07T07:59:47;-0.80;99.90
38090;DHT22;23904;52.322;10.232;2024-01-07T08:02:13;-0.80;99.90
38090;DHT22;23904;52.322;10.232;2024-01-07T08:04:39;-0.80;99.90
38090;DHT22;23904;52.322;10.232;2024-01-07T08:07:06;-0.80;99.90
38090;DHT22;23904;52.322;10.232;2024-01-07T08:09:33;-0.80;99.90
38090;DHT22;23904;52.322;10.232;2024-01-07T08:12:01;-0.70;99.90
38090;DHT22;23904;52.322;10.232;2024-01-07T08:14:26;-0.80;99.90
38090;DHT22;23904;52.322;10.232;2024-01-07T08:16:52;-0.80;99.90
38090;DHT22;23904;52.322;10.232;2024-01-07T08:19:18;-0.80;99.90
38090;DHT22;23904;52.322;10.232;2024-01-07T08:21:43;-0.70;99.90
38090;DHT22;23904;52.322;10.232;2024-01-07T08:24:08;-0.70;99.90
38090;DHT22;23904;52.322;10.232;2024-01-07T08:26:35;-0.70;99.90
38090;DHT22;23904;52.322;10.232;2024-01-07T08:29:01;-0.70;99.90
38090;DHT22;23904;52.322;10.232;2024-01-07T08:31:26;-0.60;99.90
38090;DHT22;23904;52.322;10.232;2024-01-07T08:33:52;-0.60;99.90
38090;DHT22;23904;52.322;10.232;2024-01-07T08:36:17;-0.50;99.90
38090;DHT22;23904;52.322;10.232;2024-01-07T08:38:43;-0.50;99.90
38090;DHT22;23904;52.322;10.232;2024-01-07T08:41:09;-0.50;99.90
38090;DHT22;23904;52.322;10.232;2024-01-07T08:43:34;-0.60;99.90
38090;DHT22;23904;52.322;10.232;2024-01-07T08:46:00;-0.60;99.90
38090;DHT22;23904;52.322;10.232;2024-01-07T08:48:25;-0.60;99.90
38090;DHT22;23904;52.322;10.232;2024-01-07T08:50:51;-0.60;99.90
38090;DHT22;23904;52.322;10.232;2024-01-07T08:53:17;-0.60;99.90
38090;DHT22;23904;52.322;10.232;2024-01-07T08:55:43;-0.60;99.90
38090;DHT22;23904;52.322;10.232;2024-01-07T08:58:09;-0.50;99.90
38090;DHT22;23904;52.322;10.232;2024-01-07T09:00:35;-0.50;99.90
38090;DHT22;23904;52.322;10.232;2024-01-07T09:03:00;-0.60;99.90
38090;DHT22;23904;52.322;10.232;2024-01-07T09:05:25;-0.40;99.90
38090;DHT22;23904;52.322;10.232;2024-01-07T09:07:51;-0.50;99.90
38090;DHT22;23904;52.322;10.232;2024-01-07T09:10:17;-0.40;99.90
38090;DHT22;23904;52.322;10.232;2024-01-07T09:12:44;-0.40;99.90
38090;DHT22;23904;52.322;10.232;2024-01-07T09:15:09;-0.40;99.90
38090;DHT22;23904;52.322;10.232;2024-01-07T09:17:36;-0.50;99.90
38090;DHT22;23904;52.322;10.232;2024-01-07T09:20:04;-0.40;99.90
38090;DHT22;23904;52.322;10.232;2024-01-07T09:22:32;-0.40;99.90
38090;DHT22;23904;52.322;10.232;2024-01-07T09:24:58;-0.30;99.90
38090;DHT22;23904;52.322;10.232;2024-01-07T09:27:23;-0.40;99.90
38090;DHT22;23904;52.322;10.232;2024-01-07T09:29:49;-0.30;99.90
38090;DHT22;23904;52.322;10.232;2024-01-07T09:32:14;-0.20;99.90
38090;DHT22;23904;52.322;10.232;2024-01-07T09:34:40;-0.30;99.90
38090;DHT22;23904;52.322;10.232;2024-01-07T09:37:05;-0.20;99.90
38090;DHT22;23904;52.322;10.232;2024-01-07T09:39:31;-0.30;99.90
38090;DHT22;23904;52.322;10.232;2024-01-07T09:41:57;-0.30;99.90
38090;DHT22;23904;52.322;10.232;2024-01-07T09:44:23;-0.30;99.90
38090;DHT22;23904;52.322;10.232;2024-01-07T09:46:49;-0.30;99.90
38090;DHT22;23904;52.322;10.232;2024-01-07T09:49:17;-0.20;99.90
38090;DHT22;23904;52.322;10.232;2024-01-07T09:51:45;-0.20;99.90
38090;DHT22;23904;52.322;10.232;2024-01-07T09:54:13;-0.30;99.90
38090;DHT22;23904;52.322;10.232;2024-01-07T09:56:51;-0.20;99.90
38090;DHT22;23904;52.322;10.232;2024-01-07T09:59:21;-0.20;99.90
38090;DHT22;23904;52.322;10.232;2024-01-07T10:01:48;-0.20;99.90
38090;DHT22;23904;52.322;10.232;2024-01-07T10:04:14;-0.20;99.90
38090;DHT22;23904;52.322;10.232;2024-01-07T10:06:40;-0.10;99.90
38090;DHT22;23904;52.322;10.232;2024-01-07T10:09:06;-0.10;99.90
38090;DHT22;23904;52.322;10.232;2024-01-07T10:11:32;-0.10;99.90
38090;DHT22;23904;52.322;10.232;2024-01-07T10:13:58;-0.10;99.90
38090;DHT22;23904;52.322;10.232;2024-01-07T10:16:23;0.00;99.90
38090;DHT22;23904;52.322;10.232;2024-01-07T10:18:49;-0.10;99.90
38090;DHT22;23904;52.322;10.232;2024-01-07T10:21:14;-0.20;99.90
38090;DHT22;23904;52.322;10.232;2024-01-07T10:23:40;-0.10;99.90
38090;DHT22;23904;52.322;10.232;2024-01-07T10:26:06;-0.10;99.90
38090;DHT22;23904;52.322;10.232;2024-01-07T10:28:32;0.00;99.90
38090;DHT22;23904;52.322;10.232;2024-01-07T10:30:57;0.00;99.90
38090;DHT22;23904;52.322;10.232;2024-01-07T10:33:23;0.00;99.90
38090;DHT22;23904;52.322;10.232;2024-01-07T10:35:56;0.00;99.90
38090;DHT22;23904;52.322;10.232;2024-01-07T10:38:22;0.00;99.90
38090;DHT22;23904;52.322;10.232;2024-01-07T10:40:50;0.00;99.90
38090;DHT22;23904;52.322;10.232;2024-01-07T10:43:17;0.00;99.90
38090;DHT22;23904;52.322;10.232;2024-01-07T10:45:47;0.00;99.90
38090;DHT22;23904;52.322;10.232;2024-01-07T10:48:17;0.00;99.90
38090;DHT22;23904;52.322;10.232;2024-01-07T10:50:45;0.00;99.90
38090;DHT22;23904;52.322;10.232;2024-01-07T10:53:16;0.10;99.90
38090;DHT22;23904;52.322;10.232;2024-01-07T10:55:52;0.00;99.90
38090;DHT22;23904;52.322;10.232;2024-01-07T10:58:21;0.10;99.90
38090;DHT22;23904;52.322;10.232;2024-01-07T11:00:47;0.10;99.90
38090;DHT22;23904;52.322;10.232;2024-01-07T11:03:43;0.10;99.90
38090;DHT22;23904;52.322;10.232;2024-01-07T11:06:33;0.10;99.90
38090;DHT22;23904;52.322;10.232;2024-01-07T11:09:03;0.10;99.90
38090;DHT22;23904;52.322;10.232;2024-01-07T11:11:38;0.10;99.90
38090;DHT22;23904;52.322;10.232;2024-01-07T11:17:02;0.10;99.90
38090;DHT22;23904;52.322;10.232;2024-01-07T11:19:29;0.10;99.90
38090;DHT22;23904;52.322;10.232;2024-01-07T11:22:23;0.10;99.90
38090;DHT22;23904;52.322;10.232;2024-01-07T11:24:51;0.20;99.90
38090;DHT22;23904;52.322;10.232;2024-01-07T11:27:17;0.20;99.90
38090;DHT22;23904;52.322;10.232;2024-01-07T11:29:43;0.20;99.90
38090;DHT22;23904;52.322;10.232;2024-01-07T11:32:12;0.20;99.90
38090;DHT22;23904;52.322;10.232;2024-01-07T11:34:38;0.30;99.90
38090;DHT22;23904;52.322;10.232;2024-01-07T11:37:09;0.30;99.90
38090;DHT22;23904;52.322;10.232;2024-01-07T11:39:36;0.20;99.90
38090;DHT22;23904;52.322;10.232;2024-01-07T11:42:03;0.20;99.90
38090;DHT22;23904;52.322;10.232;2024-01-07T11:44:29;0.30;99.90
38090;DHT22;23904;52.322;10.232;2024-01-07T11:46:55;0.30;99.90
38090;DHT22;23904;52.322;10.232;2024-01-07T11:49:21;0.30;99.90
38090;DHT22;23904;52.322;10.232;2024-01-07T11:51:47;0.30;99.90
38090;DHT22;23904;52.322;10.232;2024-01-07T11:54:12;0.30;99.90
38090;DHT22;23904;52.322;10.232;2024-01-07T11:56:39;0.30;99.90
38090;DHT22;23904;52.322;10.232;2024-01-07T11:59:05;0.30;99.90
38090;DHT22;23904;52.322;10.232;2024-01-07T12:01:31;0.30;99.90
38090;DHT22;23904;52.322;10.232;2024-01-07T12:03:57;0.30;99.90
38090;DHT22;23904;52.322;10.232;2024-01-07T12:06:22;0.30;99.90
38090;DHT22;23904;52.322;10.232;2024-01-07T12:08:48;0.30;99.90
38090;DHT22;23904;52.322;10.232;2024-01-07T12:11:14;0.30;99.90
38090;DHT22;23904;52.322;10.232;2024-01-07T12:13:40;0.40;99.90
38090;DHT22;23904;52.322;10.232;2024-01-07T12:16:08;0.30;99.90
38090;DHT22;23904;52.322;10.232;2024-01-07T12:18:36;0.30;99.90
38090;DHT22;23904;52.322;10.232;2024-01-07T12:21:03;0.30;99.90
38090;DHT22;23904;52.322;10.232;2024-01-07T12:23:29;0.30;99.90
38090;DHT22;23904;52.322;10.232;2024-01-07T12:26:10;0.20;99.90
38090;DHT22;23904;52.322;10.232;2024-01-07T12:28:37;0.30;99.90
38090;DHT22;23904;52.322;10.232;2024-01-07T12:31:04;0.30;99.90
38090;DHT22;23904;52.322;10.232;2024-01-07T12:33:30;0.40;99.90
38090;DHT22;23904;52.322;10.232;2024-01-07T12:35:59;0.30;99.90
38090;DHT22;23904;52.322;10.232;2024-01-07T12:38:28;0.40;99.90
38090;DHT22;23904;52.322;10.232;2024-01-07T12:40:54;0.50;99.90
38090;DHT22;23904;52.322;10.232;2024-01-07T12:43:20;0.50;99.90
38090;DHT22;23904;52.322;10.232;2024-01-07T12:45:47;0.60;99.90
38090;DHT22;23904;52.322;10.232;2024-01-07T12:48:13;0.50;99.90
38090;DHT22;23904;52.322;10.232;2024-01-07T12:50:39;0.50;99.90
38090;DHT22;23904;52.322;10.232;2024-01-07T12:53:05;0.50;99.90
38090;DHT22;23904;52.322;10.232;2024-01-07T12:55:31;0.50;99.90
38090;DHT22;23904;52.322;10.232;2024-01-07T12:57:57;0.40;99.90
38090;DHT22;23904;52.322;10.232;2024-01-07T13:00:24;0.40;99.90
38090;DHT22;23904;52.322;10.232;2024-01-07T13:02:50;0.40;99.90
38090;DHT22;23904;52.322;10.232;2024-01-07T13:05:16;0.40;99.90
38090;DHT22;23904;52.322;10.232;2024-01-07T13:07:42;0.50;99.90
38090;DHT22;23904;52.322;10.232;2024-01-07T13:10:08;0.50;99.90
38090;DHT22;23904;52.322;10.232;2024-01-07T13:12:35;0.50;99.90
38090;DHT22;23904;52.322;10.232;2024-01-07T13:15:01;0.50;99.90
38090;DHT22;23904;52.322;10.232;2024-01-07T13:17:28;0.60;99.90
38090;DHT22;23904;52.322;10.232;2024-01-07T13:19:55;0.50;99.90
38090;DHT22;23904;52.322;10.232;2024-01-07T13:22:21;0.50;99.90
38090;DHT22;23904;52.322;10.232;2024-01-07T13:24:47;0.50;99.90
38090;DHT22;23904;52.322;10.232;2024-01-07T13:27:12;0.60;99.90
38090;DHT22;23904;52.322;10.232;2024-01-07T13:29:38;0.60;99.90
38090;DHT22;23904;52.322;10.232;2024-01-07T13:32:04;0.70;99.90
38090;DHT22;23904;52.322;10.232;2024-01-07T13:34:30;0.70;99.90
38090;DHT22;23904;52.322;10.232;2024-01-07T13:36:55;0.60;99.90
38090;DHT22;23904;52.322;10.232;2024-01-07T13:39:21;0.60;99.90
38090;DHT22;23904;52.322;10.232;2024-01-07T13:41:47;0.70;99.90
38090;DHT22;23904;52.322;10.232;2024-01-07T13:44:13;0.60;99.90
38090;DHT22;23904;52.322;10.232;2024-01-07T13:46:46;0.70;99.90
38090;DHT22;23904;52.322;10.232;2024-01-07T13:49:15;0.70;99.90
38090;DHT22;23904;52.322;10.232;2024-01-07T13:51:41;0.70;99.90
38090;DHT22;23904;52.322;10.232;2024-01-07T13:54:07;0.60;99.90
38090;DHT22;23904;52.322;10.232;2024-01-07T13:56:34;0.60;99.90
38090;DHT22;23904;52.322;10.232;2024-01-07T13:59:02;0.70;99.90
38090;DHT22;23904;52.322;10.232;2024-01-07T14:01:31;0.60;99.90
38090;DHT22;23904;52.322;10.232;2024-01-07T14:03:56;0.70;99.90
38090;DHT22;23904;52.322;10.232;2024-01-07T14:06:22;0.70;99.90
38090;DHT22;23904;52.322;10.232;2024-01-07T14:08:47;0.70;99.90
38090;DHT22;23904;52.322;10.232;2024-01-07T14:11:13;0.60;99.90
38090;DHT22;23904;52.322;10.232;2024-01-07T14:13:38;0.60;99.90
38090;DHT22;23904;52.322;10.232;2024-01-07T14:16:04;0.60;99.90
38090;DHT22;23904;52.322;10.232;2024-01-07T14:18:30;0.60;99.90
38090;DHT22;23904;52.322;10.232;2024-01-07T14:20:56;0.60;99.90
38090;DHT22;23904;52.322;10.232;2024-01-07T14:23:21;0.50;99.90
38090;DHT22;23904;52.322;10.232;2024-01-07T14:25:47;0.50;99.90
38090;DHT22;23904;52.322;10.232;2024-01-07T14:28:13;0.50;99.90
38090;DHT22;23904;52.322;10.232;2024-01-07T14:30:38;0.50;99.90
38090;DHT22;23904;52.322;10.232;2024-01-07T14:33:04;0.50;99.90
38090;DHT22;23904;52.322;10.232;2024-01-07T14:35:30;0.40;99.90
38090;DHT22;23904;52.322;10.232;2024-01-07T14:37:58;0.40;99.90
38090;DHT22;23904;52.322;10.232;2024-01-07T14:40:25;0.40;99.90
38090;DHT22;23904;52.322;10.232;2024-01-07T14:42:50;0.30;99.90
38090;DHT22;23904;52.322;10.232;2024-01-07T14:45:20;0.30;99.90
38090;DHT22;23904;52.322;10.232;2024-01-07T14:47:45;0.30;99.90
38090;DHT22;23904;52.322;10.232;2024-01-07T14:50:11;0.30;99.90
38090;DHT22;23904;52.322;10.232;2024-01-07T14:52:36;0.30;99.90
38090;DHT22;23904;52.322;10.232;2024-01-07T14:55:02;0.30;99.90
38090;DHT22;23904;52.322;10.232;2024-01-07T14:57:28;0.20;99.90
38090;DHT22;23904;52.322;10.232;2024-01-07T14:59:53;0.30;99.90
38090;DHT22;23904;52.322;10.232;2024-01-07T15:02:19;0.20;99.90
38090;DHT22;23904;52.322;10.232;2024-01-07T15:04:44;0.10;99.90
38090;DHT22;23904;52.322;10.232;2024-01-07T15:07:10;0.10;99.90
38090;DHT22;23904;52.322;10.232;2024-01-07T15:09:38;0.10;99.90
38090;DHT22;23904;52.322;10.232;2024-01-07T15:12:06;0.10;99.90
38090;DHT22;23904;52.322;10.232;2024-01-07T15:14:32;0.10;99.90
38090;DHT22;23904;52.322;10.232;2024-01-07T15:16:58;0.10;99.90
38090;DHT22;23904;52.322;10.232;2024-01-07T15:19:24;0.10;99.90